createdAt,value
2019-02-24T00:01:57.061Z,103573.75
2019-02-24T00:04:25.548Z,103571.94
2019-02-24T00:06:54.382Z,103575.97
2019-02-24T00:09:22.867Z,103568.94
2019-02-24T00:11:51.269Z,103565.08
2019-02-24T00:14:19.710Z,103561.97
2019-02-24T00:16:48.277Z,103567.62
2019-02-24T00:19:16.754Z,103560.80
2019-02-24T00:21:45.201Z,103555.46
2019-02-24T00:24:13.720Z,103549.69
2019-02-24T00:26:42.295Z,103545.78
2019-02-24T00:29:10.758Z,103551.76
2019-02-24T00:31:39.433Z,103545.63
2019-02-24T00:34:08.081Z,103552.98
2019-02-24T00:37:16.907Z,103556.06
2019-02-24T00:42:34.561Z,103548.61
2019-02-24T00:48:11.280Z,103548.34
2019-02-24T00:50:39.741Z,103546.03
2019-02-24T00:53:08.193Z,103539.09
2019-02-24T00:55:36.777Z,103535.09
2019-02-24T00:58:05.248Z,103516.80
2019-02-24T01:00:33.892Z,103516.35
2019-02-24T01:03:02.419Z,103520.70
2019-02-24T01:05:30.891Z,103505.71
2019-02-24T01:07:59.532Z,103514.44
2019-02-24T01:11:08.232Z,103525.23
2019-02-24T01:13:37.065Z,103525.88
2019-02-24T01:16:05.607Z,103530.56
2019-02-24T01:18:34.053Z,103530.50
2019-02-24T01:21:02.602Z,103530.45
2019-02-24T01:23:31.173Z,103524.33
2019-02-24T01:25:59.720Z,103528.56
2019-02-24T01:28:28.378Z,103531.41
2019-02-24T01:30:56.977Z,103524.48
2019-02-24T01:33:25.487Z,103528.39
2019-02-24T01:35:54.121Z,103524.98
2019-02-24T01:38:22.602Z,103523.39
2019-02-24T01:40:51.051Z,103531.69
2019-02-24T01:43:19.537Z,103536.28
2019-02-24T01:45:47.975Z,103538.20
2019-02-24T01:48:16.510Z,103541.98
2019-02-24T01:50:45.080Z,103539.30
2019-02-24T01:53:13.685Z,103542.39
2019-02-24T01:55:42.179Z,103542.84
2019-02-24T01:58:10.693Z,103530.09
2019-02-24T02:00:39.146Z,103527.46
2019-02-24T02:03:07.936Z,103530.50
2019-02-24T02:05:36.377Z,103525.28
2019-02-24T02:08:05.037Z,103524.64
2019-02-24T02:10:33.498Z,103511.73
2019-02-24T02:13:02.020Z,103502.33
2019-02-24T02:15:30.647Z,103503.20
2019-02-24T02:17:59.446Z,103497.52
2019-02-24T02:20:27.959Z,103484.99
2019-02-24T02:22:56.502Z,103481.59
2019-02-24T02:25:24.904Z,103479.53
2019-02-24T02:27:53.433Z,103474.45
2019-02-24T02:30:22.007Z,103477.50
2019-02-24T02:32:50.655Z,103468.51
2019-02-24T02:35:19.231Z,103475.37
2019-02-24T02:37:47.693Z,103476.69
2019-02-24T02:40:16.243Z,103484.41
2019-02-24T02:42:45.090Z,103474.63
2019-02-24T02:45:13.882Z,103472.25
2019-02-24T02:47:42.360Z,103475.48
2019-02-24T02:50:10.772Z,103474.70
2019-02-24T02:52:39.306Z,103469.64
2019-02-24T02:55:07.929Z,103468.28
2019-02-24T02:57:36.575Z,103474.70
2019-02-24T03:00:45.038Z,103469.31
2019-02-24T03:03:13.474Z,103474.27
2019-02-24T03:08:17.438Z,103481.95
2019-02-24T03:10:45.937Z,103475.78
2019-02-24T03:13:14.481Z,103477.59
2019-02-24T03:15:43.056Z,103470.61
2019-02-24T03:18:11.450Z,103474.55
2019-02-24T03:20:39.895Z,103469.51
2019-02-24T03:23:08.441Z,103468.45
2019-02-24T03:25:37.214Z,103463.14
2019-02-24T03:28:06.104Z,103469.31
2019-02-24T03:30:34.645Z,103472.44
2019-02-24T03:33:03.073Z,103472.30
2019-02-24T03:35:44.306Z,103476.98
2019-02-24T03:38:12.845Z,103466.28
2019-02-24T03:40:41.480Z,103455.41
2019-02-24T03:43:10.001Z,103457.86
2019-02-24T03:45:38.441Z,103459.80
2019-02-24T03:48:06.936Z,103455.23
2019-02-24T03:50:35.655Z,103463.03
2019-02-24T03:53:04.420Z,103464.35
2019-02-24T03:55:32.896Z,103466.98
2019-02-24T03:58:01.341Z,103464.72
2019-02-24T04:00:29.892Z,103461.98
2019-02-24T04:02:58.351Z,103462.67
2019-02-24T04:05:26.733Z,103464.56
2019-02-24T04:07:55.193Z,103464.45
2019-02-24T04:10:24.029Z,103449.69
2019-02-24T04:12:52.481Z,103434.78
2019-02-24T04:15:21.401Z,103423.48
2019-02-24T04:17:50.306Z,103417.98
2019-02-24T04:20:18.966Z,103415.08
2019-02-24T04:22:47.407Z,103417.66
2019-02-24T04:25:15.782Z,103411.09
2019-02-24T04:27:44.740Z,103405.95
2019-02-24T04:30:13.320Z,103399.43
2019-02-24T04:32:41.887Z,103391.34
2019-02-24T04:35:10.475Z,103396.64
2019-02-24T04:37:39.000Z,103394.30
2019-02-24T04:40:47.425Z,103402.47
2019-02-24T04:43:15.981Z,103394.78
2019-02-24T04:45:44.427Z,103393.11
2019-02-24T04:48:13.452Z,103399.67
2019-02-24T04:50:41.819Z,103404.39
2019-02-24T04:53:10.370Z,103401.56
2019-02-24T04:55:38.761Z,103393.88
2019-02-24T04:58:07.219Z,103386.44
2019-02-24T05:00:35.764Z,103400.13
2019-02-24T05:03:04.207Z,103397.09
2019-02-24T05:05:32.643Z,103398.06
2019-02-24T05:08:01.520Z,103397.50
2019-02-24T05:10:29.912Z,103402.58
2019-02-24T05:12:58.334Z,103415.97
2019-02-24T05:15:27.173Z,103415.39
2019-02-24T05:17:55.648Z,103421.47
2019-02-24T05:20:24.132Z,103416.58
2019-02-24T05:22:52.623Z,103421.75
2019-02-24T05:25:21.074Z,103419.13
2019-02-24T05:27:49.547Z,103416.13
2019-02-24T05:30:18.125Z,103421.67
2019-02-24T05:32:46.638Z,103421.75
2019-02-24T05:35:15.180Z,103425.17
2019-02-24T05:37:43.775Z,103431.25
2019-02-24T05:40:12.208Z,103432.89
2019-02-24T05:42:42.459Z,103428.50
2019-02-24T05:45:10.993Z,103437.61
2019-02-24T05:47:39.449Z,103437.08
2019-02-24T05:50:07.957Z,103432.68
2019-02-24T05:52:36.374Z,103436.54
2019-02-24T05:57:59.892Z,103433.86
2019-02-24T06:00:28.412Z,103431.28
2019-02-24T06:02:57.118Z,103427.74
2019-02-24T06:05:25.618Z,103419.03
2019-02-24T06:07:54.384Z,103414.69
2019-02-24T06:10:23.272Z,103422.89
2019-02-24T06:12:51.649Z,103426.38
2019-02-24T06:15:20.215Z,103423.30
2019-02-24T06:17:48.658Z,103419.23
2019-02-24T06:20:17.156Z,103418.33
2019-02-24T06:22:45.672Z,103418.69
2019-02-24T06:25:14.189Z,103422.68
2019-02-24T06:27:42.680Z,103417.09
2019-02-24T06:30:11.186Z,103415.39
2019-02-24T06:32:39.655Z,103413.98
2019-02-24T06:35:49.315Z,103415.15
2019-02-24T06:38:18.080Z,103406.81
2019-02-24T06:40:47.121Z,103413.63
2019-02-24T06:43:15.589Z,103416.20
2019-02-24T06:45:44.023Z,103415.11
2019-02-24T06:48:12.528Z,103410.30
2019-02-24T06:51:00.080Z,103408.26
2019-02-24T06:53:28.550Z,103410.14
2019-02-24T06:55:56.959Z,103413.27
2019-02-24T06:58:25.467Z,103417.21
2019-02-24T07:00:53.983Z,103432.48
2019-02-24T07:03:22.800Z,103433.41
2019-02-24T07:05:51.364Z,103436.91
2019-02-24T07:08:19.846Z,103442.70
2019-02-24T07:10:48.285Z,103435.72
2019-02-24T07:13:17.009Z,103445.58
2019-02-24T07:15:45.472Z,103449.27
2019-02-24T07:18:33.199Z,103445.92
2019-02-24T07:21:01.658Z,103448.61
2019-02-24T07:23:30.135Z,103448.53
2019-02-24T07:25:58.583Z,103446.44
2019-02-24T07:28:27.063Z,103449.12
2019-02-24T07:30:55.897Z,103443.73
2019-02-24T07:33:24.804Z,103433.33
2019-02-24T07:35:53.452Z,103430.97
2019-02-24T07:38:21.951Z,103432.74
2019-02-24T07:40:50.405Z,103432.61
2019-02-24T07:43:18.951Z,103429.42
2019-02-24T07:45:47.414Z,103424.21
2019-02-24T07:48:15.874Z,103426.84
2019-02-24T07:50:44.374Z,103422.84
2019-02-24T07:53:12.832Z,103418.13
2019-02-24T07:55:41.413Z,103410.46
2019-02-24T07:58:09.917Z,103409.50
2019-02-24T08:00:38.478Z,103418.18
2019-02-24T08:03:07.310Z,103424.97
2019-02-24T08:05:35.839Z,103426.64
2019-02-24T08:08:04.786Z,103422.63
2019-02-24T08:10:33.572Z,103433.06
2019-02-24T08:13:02.020Z,103433.75
2019-02-24T08:15:30.570Z,103432.00
2019-02-24T08:17:59.118Z,103431.19
2019-02-24T08:20:27.585Z,103428.39
2019-02-24T08:22:56.120Z,103424.11
2019-02-24T08:25:24.631Z,103436.42
2019-02-24T08:27:55.548Z,103433.06
2019-02-24T08:30:23.814Z,103429.38
2019-02-24T08:32:52.433Z,103426.13
2019-02-24T08:35:21.029Z,103427.08
2019-02-24T08:37:49.541Z,103422.91
2019-02-24T08:40:18.075Z,103414.06
2019-02-24T08:42:46.484Z,103414.62
2019-02-24T08:45:15.297Z,103417.52
2019-02-24T08:47:44.315Z,103421.67
2019-02-24T08:50:12.801Z,103426.27
2019-02-24T08:52:41.422Z,103420.44
2019-02-24T08:55:09.952Z,103420.58
2019-02-24T08:57:38.464Z,103428.63
2019-02-24T09:00:51.046Z,103421.09
2019-02-24T09:03:17.483Z,103425.63
2019-02-24T09:05:45.863Z,103426.33
2019-02-24T09:08:14.648Z,103432.36
2019-02-24T09:10:43.439Z,103435.45
2019-02-24T09:13:11.882Z,103412.59
2019-02-24T09:15:40.816Z,103404.17
2019-02-24T09:18:49.273Z,103420.12
2019-02-24T09:21:17.850Z,103426.68
2019-02-24T09:23:46.710Z,103427.07
2019-02-24T09:26:15.187Z,103434.59
2019-02-24T09:28:43.792Z,103441.07
2019-02-24T09:31:12.260Z,103445.16
2019-02-24T09:33:40.737Z,103452.25
2019-02-24T09:36:09.431Z,103459.23
2019-02-24T09:38:38.249Z,103457.75
2019-02-24T09:41:06.819Z,103463.67
2019-02-24T09:43:35.352Z,103463.25
2019-02-24T09:46:04.176Z,103465.77
2019-02-24T09:48:32.718Z,103465.81
2019-02-24T09:51:01.267Z,103465.39
2019-02-24T09:53:30.137Z,103457.78
2019-02-24T09:55:58.709Z,103450.98
2019-02-24T09:58:27.228Z,103452.63
2019-02-24T10:00:55.851Z,103453.50
2019-02-24T10:03:24.272Z,103451.87
2019-02-24T10:05:53.164Z,103446.13
2019-02-24T10:08:21.635Z,103448.39
2019-02-24T10:10:50.081Z,103438.22
2019-02-24T10:13:19.019Z,103433.56
2019-02-24T10:15:47.464Z,103436.94
2019-02-24T10:18:15.954Z,103427.08
2019-02-24T10:20:44.873Z,103427.75
2019-02-24T10:23:13.428Z,103418.64
2019-02-24T10:25:41.828Z,103419.20
2019-02-24T10:28:10.329Z,103417.36
2019-02-24T10:30:38.896Z,103414.94
2019-02-24T10:33:07.461Z,103416.44
2019-02-24T10:35:35.921Z,103433.45
2019-02-24T10:38:04.543Z,103443.19
2019-02-24T10:40:33.007Z,103447.49
2019-02-24T10:43:02.040Z,103448.92
2019-02-24T10:45:30.926Z,103439.03
2019-02-24T10:47:59.456Z,103431.75
2019-02-24T10:50:28.510Z,103430.42
2019-02-24T10:52:57.002Z,103431.95
2019-02-24T10:55:25.512Z,103438.41
2019-02-24T10:57:54.085Z,103438.58
2019-02-24T11:00:22.791Z,103432.98
2019-02-24T11:02:51.327Z,103429.69
2019-02-24T11:05:19.852Z,103424.61
2019-02-24T11:07:48.458Z,103427.49
2019-02-24T11:10:17.007Z,103426.92
2019-02-24T11:12:45.525Z,103423.50
2019-02-24T11:15:54.247Z,103424.31
2019-02-24T11:18:22.743Z,103421.55
2019-02-24T11:20:51.292Z,103416.37
2019-02-24T11:23:19.891Z,103423.95
2019-02-24T11:25:48.443Z,103421.95
2019-02-24T11:28:16.922Z,103421.66
2019-02-24T11:30:45.467Z,103412.25
2019-02-24T11:33:14.066Z,103420.61
2019-02-24T11:35:42.528Z,103418.16
2019-02-24T11:38:11.576Z,103417.11
2019-02-24T11:40:40.183Z,103417.32
2019-02-24T11:43:08.830Z,103416.42
2019-02-24T11:45:37.291Z,103419.86
2019-02-24T11:48:05.874Z,103408.85
2019-02-24T11:50:34.418Z,103407.04
2019-02-24T11:53:03.267Z,103416.76
2019-02-24T11:55:31.722Z,103421.33
2019-02-24T11:58:00.219Z,103424.43
2019-02-24T12:00:28.682Z,103423.63
2019-02-24T12:02:57.150Z,103419.05
2019-02-24T12:05:25.764Z,103418.28
2019-02-24T12:07:54.240Z,103408.35
2019-02-24T12:10:22.769Z,103410.06
2019-02-24T12:12:51.300Z,103404.09
2019-02-24T12:15:19.801Z,103394.08
2019-02-24T12:17:48.352Z,103395.86
2019-02-24T12:20:16.966Z,103401.36
2019-02-24T12:22:45.492Z,103402.45
2019-02-24T12:25:14.061Z,103397.91
2019-02-24T12:27:42.509Z,103397.42
2019-02-24T12:30:30.358Z,103393.08
2019-02-24T12:32:58.826Z,103391.19
2019-02-24T12:35:27.488Z,103389.56
2019-02-24T12:37:56.008Z,103387.59
2019-02-24T12:40:24.622Z,103394.62
2019-02-24T12:42:54.576Z,103388.64
2019-02-24T12:45:23.464Z,103392.44
2019-02-24T12:47:51.995Z,103386.42
2019-02-24T12:50:20.579Z,103385.19
2019-02-24T12:52:49.489Z,103382.15
2019-02-24T12:55:17.861Z,103376.31
2019-02-24T12:57:46.418Z,103373.46
2019-02-24T13:00:34.213Z,103373.20
2019-02-24T13:03:02.763Z,103377.57
2019-02-24T13:05:31.449Z,103374.30
2019-02-24T13:07:59.866Z,103373.65
2019-02-24T13:10:28.403Z,103377.66
2019-02-24T13:12:56.896Z,103364.18
2019-02-24T13:15:25.347Z,103367.44
2019-02-24T13:17:53.911Z,103355.05
2019-02-24T13:20:22.490Z,103349.00
2019-02-24T13:22:51.056Z,103344.63
2019-02-24T13:25:19.531Z,103346.06
2019-02-24T13:27:48.020Z,103342.91
2019-02-24T13:30:56.713Z,103338.33
2019-02-24T13:33:25.219Z,103327.97
2019-02-24T13:35:53.664Z,103335.28
2019-02-24T13:38:22.152Z,103336.98
2019-02-24T13:40:50.599Z,103337.41
2019-02-24T13:43:19.226Z,103344.44
2019-02-24T13:45:47.696Z,103349.66
2019-02-24T13:48:16.167Z,103339.09
2019-02-24T13:50:44.720Z,103337.33
2019-02-24T13:53:13.286Z,103329.41
2019-02-24T13:55:42.118Z,103330.58
2019-02-24T13:58:10.667Z,103330.81
2019-02-24T14:00:39.133Z,103337.32
2019-02-24T14:03:07.722Z,103339.85
2019-02-24T14:05:36.124Z,103338.35
2019-02-24T14:08:04.855Z,103331.82
2019-02-24T14:10:33.386Z,103325.63
2019-02-24T14:13:01.853Z,103326.78
2019-02-24T14:15:30.731Z,103326.09
2019-02-24T14:17:59.237Z,103318.33
2019-02-24T14:20:27.787Z,103318.27
2019-02-24T14:26:04.621Z,103327.70
2019-02-24T14:28:33.173Z,103329.72
2019-02-24T14:31:02.080Z,103332.66
2019-02-24T14:33:30.551Z,103334.66
2019-02-24T14:35:59.001Z,103332.08
2019-02-24T14:38:27.674Z,103321.50
2019-02-24T14:40:56.248Z,103321.23
2019-02-24T14:43:24.783Z,103316.08
2019-02-24T14:45:53.312Z,103308.87
2019-02-24T14:48:21.791Z,103306.17
2019-02-24T14:50:50.338Z,103304.08
2019-02-24T14:53:18.825Z,103300.36
2019-02-24T14:55:47.294Z,103300.41
2019-02-24T14:58:15.784Z,103300.56
2019-02-24T15:00:44.295Z,103297.87
2019-02-24T15:03:12.971Z,103297.76
2019-02-24T15:05:41.849Z,103299.09
2019-02-24T15:08:10.566Z,103290.01
2019-02-24T15:10:39.280Z,103293.38
2019-02-24T15:13:07.865Z,103311.54
2019-02-24T15:15:55.819Z,103298.89
2019-02-24T15:18:24.330Z,103286.39
2019-02-24T15:20:52.850Z,103286.59
2019-02-24T15:23:21.312Z,103278.21
2019-02-24T15:25:49.880Z,103278.66
2019-02-24T15:28:18.408Z,103280.84
2019-02-24T15:30:47.189Z,103282.16
2019-02-24T15:33:15.660Z,103278.95
2019-02-24T15:35:44.212Z,103280.66
2019-02-24T15:38:12.736Z,103288.39
2019-02-24T15:40:41.512Z,103287.47
2019-02-24T15:43:10.165Z,103296.53
2019-02-24T15:45:38.781Z,103295.22
2019-02-24T15:48:07.406Z,103296.03
2019-02-24T15:50:36.070Z,103298.06
2019-02-24T15:53:04.658Z,103308.22
2019-02-24T15:55:33.177Z,103310.72
2019-02-24T15:58:01.828Z,103314.01
2019-02-24T16:00:30.520Z,103324.47
2019-02-24T16:03:01.853Z,103311.31
2019-02-24T16:05:29.330Z,103315.28
2019-02-24T16:07:58.198Z,103318.97
2019-02-24T16:10:26.779Z,103316.84
2019-02-24T16:12:55.312Z,103311.71
2019-02-24T16:16:03.766Z,103318.44
2019-02-24T16:18:32.345Z,103316.20
2019-02-24T16:21:00.901Z,103317.50
2019-02-24T16:23:29.539Z,103322.64
2019-02-24T16:25:58.216Z,103324.31
2019-02-24T16:28:26.730Z,103333.36
2019-02-24T16:30:55.381Z,103330.64
2019-02-24T16:33:24.078Z,103333.63
2019-02-24T16:35:52.648Z,103326.89
2019-02-24T16:38:21.193Z,103329.50
2019-02-24T16:40:49.780Z,103327.16
2019-02-24T16:43:18.295Z,103318.61
2019-02-24T16:45:47.087Z,103319.52
2019-02-24T16:48:15.933Z,103320.59
2019-02-24T16:50:44.639Z,103324.87
2019-02-24T16:56:04.541Z,103306.75
2019-02-24T16:58:34.349Z,103304.00
2019-02-24T17:01:03.502Z,103298.77
2019-02-24T17:03:32.757Z,103303.14
2019-02-24T17:06:01.726Z,103302.19
2019-02-24T17:08:30.311Z,103298.00
2019-02-24T17:11:07.137Z,103300.86
2019-02-24T17:13:30.997Z,103295.73
2019-02-24T17:15:59.506Z,103293.30
2019-02-24T17:18:28.278Z,103296.91
2019-02-24T17:20:57.225Z,103301.09
2019-02-24T17:23:26.097Z,103303.02
2019-02-24T17:25:54.760Z,103300.65
2019-02-24T17:28:23.319Z,103307.14
2019-02-24T17:30:51.885Z,103304.80
2019-02-24T17:33:29.499Z,103300.63
2019-02-24T17:35:50.751Z,103296.06
2019-02-24T17:38:19.267Z,103300.80
2019-02-24T17:40:47.833Z,103294.16
2019-02-24T17:43:16.231Z,103300.23
2019-02-24T17:45:44.993Z,103303.84
2019-02-24T17:48:15.297Z,103304.06
2019-02-24T17:50:43.881Z,103313.18
2019-02-24T17:53:12.409Z,103317.95
2019-02-24T17:55:41.048Z,103334.09
2019-02-24T17:58:09.592Z,103330.98
2019-02-24T18:00:57.435Z,103336.99
2019-02-24T18:03:25.887Z,103335.08
2019-02-24T18:05:54.559Z,103338.05
2019-02-24T18:08:28.276Z,103342.13
2019-02-24T18:10:53.518Z,103342.91
2019-02-24T18:13:22.443Z,103339.95
2019-02-24T18:15:51.135Z,103333.99
2019-02-24T18:18:19.617Z,103338.54
2019-02-24T18:20:48.129Z,103333.88
2019-02-24T18:23:16.547Z,103335.72
2019-02-24T18:25:45.469Z,103338.46
2019-02-24T18:28:14.081Z,103323.73
2019-02-24T18:30:42.712Z,103321.66
2019-02-24T18:33:11.500Z,103324.88
2019-02-24T18:35:40.166Z,103318.80
2019-02-24T18:38:08.737Z,103327.72
2019-02-24T18:40:37.327Z,103320.81
2019-02-24T18:43:05.912Z,103313.88
2019-02-24T18:45:34.399Z,103319.40
2019-02-24T18:48:02.906Z,103310.28
2019-02-24T18:50:31.406Z,103307.80
2019-02-24T18:52:59.913Z,103301.45
2019-02-24T18:55:28.465Z,103320.14
2019-02-24T18:57:57.010Z,103318.05
2019-02-24T19:00:25.513Z,103324.89
2019-02-24T19:02:55.136Z,103325.92
2019-02-24T19:05:24.841Z,103321.55
2019-02-24T19:07:53.446Z,103322.14
2019-02-24T19:11:01.938Z,103313.32
2019-02-24T19:13:30.375Z,103313.50
2019-02-24T19:15:59.145Z,103317.48
2019-02-24T19:18:27.621Z,103315.00
2019-02-24T19:20:56.144Z,103316.53
2019-02-24T19:23:24.569Z,103317.95
2019-02-24T19:25:53.490Z,103318.97
2019-02-24T19:28:21.872Z,103314.98
2019-02-24T19:30:50.355Z,103315.49
2019-02-24T19:33:18.953Z,103312.16
2019-02-24T19:35:47.484Z,103311.00
2019-02-24T19:38:16.065Z,103297.37
2019-02-24T19:40:44.574Z,103297.72
2019-02-24T19:43:13.374Z,103299.06
2019-02-24T19:45:41.929Z,103293.11
2019-02-24T19:48:10.559Z,103292.33
2019-02-24T19:50:39.083Z,103298.71
2019-02-24T19:53:14.969Z,103299.45
2019-02-24T19:55:43.549Z,103297.39
2019-02-24T19:58:12.082Z,103301.92
2019-02-24T20:00:40.564Z,103303.81
2019-02-24T20:03:09.100Z,103304.75
2019-02-24T20:05:37.643Z,103309.68
2019-02-24T20:08:06.164Z,103311.98
2019-02-24T20:10:34.724Z,103303.63
2019-02-24T20:13:03.316Z,103306.38
2019-02-24T20:15:32.252Z,103307.41
2019-02-24T20:18:00.868Z,103307.61
2019-02-24T20:20:29.380Z,103299.52
2019-02-24T20:22:57.931Z,103303.70
2019-02-24T20:25:26.513Z,103311.19
2019-02-24T20:27:55.381Z,103320.09
2019-02-24T20:30:43.148Z,103323.61
2019-02-24T20:33:11.737Z,103332.52
2019-02-24T20:35:40.805Z,103329.95
2019-02-24T20:38:09.351Z,103326.64
2019-02-24T20:40:37.956Z,103339.05
2019-02-24T20:43:06.622Z,103339.22
2019-02-24T20:45:35.220Z,103339.42
2019-02-24T20:48:03.809Z,103340.91
2019-02-24T20:50:51.662Z,103341.55
2019-02-24T20:53:20.216Z,103339.75
2019-02-24T20:55:49.138Z,103344.70
2019-02-24T20:58:17.918Z,103346.67
2019-02-24T21:03:37.703Z,103352.61
2019-02-24T21:06:06.100Z,103358.50
2019-02-24T21:08:34.746Z,103362.65
2019-02-24T21:11:03.315Z,103368.16
2019-02-24T21:13:31.946Z,103366.91
2019-02-24T21:16:00.454Z,103370.11
2019-02-24T21:18:29.995Z,103368.86
2019-02-24T21:20:59.570Z,103361.19
2019-02-24T21:23:28.173Z,103360.88
2019-02-24T21:25:56.805Z,103352.53
2019-02-24T21:28:25.317Z,103341.73
2019-02-24T21:30:53.945Z,103339.16
2019-02-24T21:33:22.559Z,103343.61
2019-02-24T21:35:51.216Z,103341.03
2019-02-24T21:38:19.942Z,103350.05
2019-02-24T21:40:48.406Z,103347.55
2019-02-24T21:43:16.883Z,103356.83
2019-02-24T21:45:45.446Z,103353.41
2019-02-24T21:48:13.887Z,103347.75
2019-02-24T21:50:42.495Z,103340.80
2019-02-24T21:53:11.082Z,103344.39
2019-02-24T21:55:39.535Z,103344.48
2019-02-24T21:58:08.087Z,103336.88
2019-02-24T22:03:25.821Z,103340.30
2019-02-24T22:05:54.360Z,103343.42
2019-02-24T22:08:22.812Z,103340.84
2019-02-24T22:10:51.430Z,103337.65
2019-02-24T22:13:19.956Z,103329.00
2019-02-24T22:15:48.554Z,103324.91
2019-02-24T22:18:17.098Z,103323.03
2019-02-24T22:20:45.628Z,103316.80
2019-02-24T22:23:14.555Z,103323.97
2019-02-24T22:25:43.092Z,103323.58
2019-02-24T22:28:11.734Z,103316.95
2019-02-24T22:30:40.412Z,103331.61
2019-02-24T22:33:09.026Z,103328.30
2019-02-24T22:35:37.741Z,103324.39
2019-02-24T22:38:06.341Z,103321.83
2019-02-24T22:40:34.787Z,103325.41
2019-02-24T22:43:03.369Z,103331.57
2019-02-24T22:45:31.830Z,103322.38
2019-02-24T22:48:00.337Z,103317.66
2019-02-24T22:50:28.793Z,103315.16
2019-02-24T22:52:58.286Z,103310.02
2019-02-24T22:55:26.797Z,103307.94
2019-02-24T22:57:55.261Z,103306.62
2019-02-24T23:01:03.753Z,103308.02
2019-02-24T23:04:12.238Z,103298.83
2019-02-24T23:06:40.769Z,103293.30
2019-02-24T23:09:49.219Z,103308.41
2019-02-24T23:12:17.843Z,103313.52
2019-02-24T23:14:46.314Z,103316.39
2019-02-24T23:17:14.906Z,103312.69
2019-02-24T23:19:43.737Z,103318.37
2019-02-24T23:22:12.378Z,103316.27
2019-02-24T23:24:40.993Z,103315.88
2019-02-24T23:27:09.553Z,103310.97
2019-02-24T23:29:37.995Z,103310.11
2019-02-24T23:32:06.558Z,103305.67
2019-02-24T23:34:35.072Z,103305.44
2019-02-24T23:37:03.676Z,103301.58
2019-02-24T23:39:32.563Z,103317.16
2019-02-24T23:42:01.075Z,103320.73
2019-02-24T23:44:29.686Z,103322.06
2019-02-24T23:46:58.187Z,103311.65
2019-02-24T23:49:26.643Z,103306.24
2019-02-24T23:51:55.145Z,103292.72
2019-02-24T23:54:23.657Z,103295.37
2019-02-24T23:56:52.265Z,103297.63
2019-02-24T23:59:20.911Z,103289.67
